Aviation Digital Data Service (ADDS)

Output produced by METARs form (2107 UTC 21 October 2017)
found at http://aviationweather.gov/adds/metars/
 
KLCH 211733Z 2118/2218 15009KT P6SM VCTS SCT015 BKN020CB 
     FM220200 14008KT P6SM OVC015 
     FM221400 16006KT P6SM VCTS OVC025CB 
     TEMPO 2214/2218 1SM +TSRA OVC015CB